createdAt,value
2018-01-30T00:01:46.340Z,101316.22
2018-01-30T00:04:13.861Z,101326.66
2018-01-30T00:06:41.377Z,101330.87
2018-01-30T00:09:08.925Z,101326.64
2018-01-30T00:11:36.453Z,101320.78
2018-01-30T00:14:04.039Z,101329.05
2018-01-30T00:16:31.678Z,101329.30
2018-01-30T00:18:59.213Z,101335.06
2018-01-30T00:21:26.768Z,101342.61
2018-01-30T00:23:54.352Z,101354.98
2018-01-30T00:26:21.877Z,101360.02
2018-01-30T00:28:49.388Z,101358.63
2018-01-30T00:31:16.920Z,101363.58
2018-01-30T00:33:44.491Z,101355.69
2018-01-30T00:36:12.015Z,101365.76
2018-01-30T00:38:39.542Z,101354.15
2018-01-30T00:41:07.192Z,101388.12
2018-01-30T00:43:34.712Z,101383.67
2018-01-30T00:46:02.237Z,101371.38
2018-01-30T00:48:29.746Z,101392.73
2018-01-30T00:50:57.264Z,101404.05
2018-01-30T00:53:24.774Z,101412.13
2018-01-30T00:55:52.293Z,101417.72
2018-01-30T00:58:19.839Z,101415.75
2018-01-30T01:00:47.337Z,101417.36
2018-01-30T01:03:14.852Z,101427.16
2018-01-30T01:05:42.408Z,101442.68
2018-01-30T01:08:09.914Z,101438.05
2018-01-30T01:10:37.446Z,101441.88
2018-01-30T01:13:05.129Z,101434.48
2018-01-30T01:15:32.654Z,101440.17
2018-01-30T01:18:00.253Z,101433.45
2018-01-30T01:20:27.757Z,101452.72
2018-01-30T01:22:55.273Z,101452.05
2018-01-30T01:25:22.767Z,101446.75
2018-01-30T01:27:50.285Z,101455.54
2018-01-30T01:30:17.825Z,101456.89
2018-01-30T01:32:45.406Z,101471.85
2018-01-30T01:35:13.362Z,101467.60
2018-01-30T01:37:40.908Z,101480.95
2018-01-30T01:40:08.417Z,101474.39
2018-01-30T01:42:35.963Z,101491.95
2018-01-30T01:45:03.505Z,101500.75
2018-01-30T01:47:31.009Z,101498.84
2018-01-30T01:49:58.501Z,101493.56
2018-01-30T01:52:26.025Z,101490.67
2018-01-30T01:54:53.540Z,101497.08
2018-01-30T01:57:21.059Z,101504.32
2018-01-30T01:59:48.783Z,101500.09
2018-01-30T02:02:16.285Z,101510.63
2018-01-30T02:04:43.812Z,101503.71
2018-01-30T02:07:11.342Z,101510.17
2018-01-30T02:09:38.865Z,101510.02
2018-01-30T02:12:06.492Z,101494.45
2018-01-30T02:14:33.988Z,101522.94
2018-01-30T02:17:01.513Z,101536.28
2018-01-30T02:19:29.234Z,101530.01
2018-01-30T02:21:56.728Z,101525.56
2018-01-30T02:24:24.220Z,101537.16
2018-01-30T02:26:51.760Z,101538.50
2018-01-30T02:29:19.260Z,101548.57
2018-01-30T02:31:46.776Z,101545.56
2018-01-30T02:34:14.324Z,101555.55
2018-01-30T02:36:41.859Z,101553.62
2018-01-30T02:39:09.361Z,101571.67
2018-01-30T02:41:36.902Z,101562.02
2018-01-30T02:44:04.413Z,101573.02
2018-01-30T02:46:31.912Z,101568.93
2018-01-30T02:48:59.437Z,101573.50
2018-01-30T02:51:26.945Z,101569.72
2018-01-30T02:53:54.461Z,101581.07
2018-01-30T02:56:22.012Z,101581.64
2018-01-30T02:58:49.564Z,101585.94
2018-01-30T03:01:17.060Z,101575.20
2018-01-30T03:03:44.568Z,101580.73
2018-01-30T03:06:12.093Z,101590.96
2018-01-30T03:08:39.597Z,101592.72
2018-01-30T03:11:07.293Z,101593.64
2018-01-30T03:13:34.791Z,101592.79
2018-01-30T03:16:02.312Z,101598.58
2018-01-30T03:18:29.833Z,101610.99
2018-01-30T03:20:57.330Z,101606.13
2018-01-30T03:23:24.888Z,101614.00
2018-01-30T03:25:52.421Z,101613.75
2018-01-30T03:28:19.929Z,101615.51
2018-01-30T03:30:47.553Z,101607.19
2018-01-30T03:33:15.073Z,101626.09
2018-01-30T03:35:42.567Z,101623.83
2018-01-30T03:38:10.061Z,101624.44
2018-01-30T03:40:37.784Z,101631.73
2018-01-30T03:43:05.278Z,101622.48
2018-01-30T03:45:32.813Z,101603.16
2018-01-30T03:48:00.324Z,101627.92
2018-01-30T03:50:27.928Z,101635.34
2018-01-30T03:52:55.456Z,101640.23
2018-01-30T03:55:22.981Z,101632.08
2018-01-30T03:57:50.482Z,101633.08
2018-01-30T04:00:18.062Z,101634.73
2018-01-30T04:02:45.579Z,101634.73
2018-01-30T04:05:13.076Z,101645.39
2018-01-30T04:07:40.689Z,101642.03
2018-01-30T04:10:08.277Z,101643.03
2018-01-30T04:12:35.805Z,101635.57
2018-01-30T04:15:03.429Z,101635.31
2018-01-30T04:17:31.171Z,101652.20
2018-01-30T04:19:58.664Z,101654.06
2018-01-30T04:22:26.203Z,101641.13
2018-01-30T04:24:53.736Z,101640.33
2018-01-30T04:27:21.233Z,101636.54
2018-01-30T04:29:48.776Z,101640.75
2018-01-30T04:32:16.292Z,101654.85
2018-01-30T04:34:43.880Z,101648.80
2018-01-30T04:37:11.436Z,101646.21
2018-01-30T04:39:38.941Z,101652.17
2018-01-30T04:42:06.488Z,101666.69
2018-01-30T04:44:34.128Z,101662.16
2018-01-30T04:47:01.693Z,101673.65
2018-01-30T04:49:29.189Z,101673.48
2018-01-30T04:51:56.714Z,101674.06
2018-01-30T04:54:24.225Z,101685.50
2018-01-30T04:56:51.758Z,101677.76
2018-01-30T04:59:19.253Z,101678.63
2018-01-30T05:01:46.772Z,101678.20
2018-01-30T05:04:14.405Z,101687.68
2018-01-30T05:06:41.906Z,101699.01
2018-01-30T05:09:09.399Z,101693.12
2018-01-30T05:11:36.945Z,101696.58
2018-01-30T05:14:04.468Z,101699.42
2018-01-30T05:16:32.068Z,101690.55
2018-01-30T05:18:59.611Z,101684.66
2018-01-30T05:21:27.148Z,101683.12
2018-01-30T05:23:54.763Z,101680.09
2018-01-30T05:26:22.280Z,101694.27
2018-01-30T05:28:49.824Z,101696.52
2018-01-30T05:31:17.350Z,101697.45
2018-01-30T05:33:44.908Z,101694.36
2018-01-30T05:36:12.473Z,101696.37
2018-01-30T05:38:39.989Z,101689.69
2018-01-30T05:41:08.489Z,101700.94
2018-01-30T05:43:36.004Z,101701.85
2018-01-30T05:46:03.617Z,101696.48
2018-01-30T05:48:31.153Z,101706.39
2018-01-30T05:50:58.828Z,101702.79
2018-01-30T05:53:26.325Z,101699.27
2018-01-30T05:55:53.848Z,101714.46
2018-01-30T05:58:21.412Z,101707.48
2018-01-30T06:00:48.921Z,101710.43
2018-01-30T06:03:16.421Z,101707.64
2018-01-30T06:05:43.937Z,101712.62
2018-01-30T06:08:11.438Z,101720.48
2018-01-30T06:10:38.999Z,101719.22
2018-01-30T06:13:06.507Z,101727.96
2018-01-30T06:15:33.996Z,101732.48
2018-01-30T06:18:01.545Z,101741.86
2018-01-30T06:20:29.094Z,101752.12
2018-01-30T06:22:56.590Z,101750.88
2018-01-30T06:25:24.080Z,101764.98
2018-01-30T06:27:51.669Z,101759.70
2018-01-30T06:30:19.265Z,101766.84
2018-01-30T06:32:46.771Z,101772.88
2018-01-30T06:35:14.408Z,101778.34
2018-01-30T06:37:41.965Z,101778.02
2018-01-30T06:40:09.464Z,101790.63
2018-01-30T06:42:37.000Z,101794.22
2018-01-30T06:45:04.534Z,101790.30
2018-01-30T06:47:32.055Z,101801.05
2018-01-30T06:49:59.577Z,101812.95
2018-01-30T06:52:27.101Z,101808.59
2018-01-30T06:54:54.629Z,101821.19
2018-01-30T06:57:22.149Z,101820.02
2018-01-30T06:59:49.645Z,101817.02
2018-01-30T07:02:17.169Z,101814.42
2018-01-30T07:04:44.702Z,101824.56
2018-01-30T07:07:12.227Z,101829.19
2018-01-30T07:09:39.816Z,101837.08
2018-01-30T07:12:07.337Z,101836.84
2018-01-30T07:14:34.864Z,101845.90
2018-01-30T07:17:02.493Z,101851.89
2018-01-30T07:19:29.997Z,101852.46
2018-01-30T07:21:57.523Z,101837.00
2018-01-30T07:24:25.289Z,101851.21
2018-01-30T07:26:52.789Z,101853.16
2018-01-30T07:29:20.393Z,101844.73
2018-01-30T07:31:47.948Z,101852.21
2018-01-30T07:34:15.508Z,101863.06
2018-01-30T07:36:43.033Z,101859.18
2018-01-30T07:39:10.650Z,101867.75
2018-01-30T07:41:38.209Z,101873.31
2018-01-30T07:44:05.747Z,101877.50
2018-01-30T07:46:33.319Z,101875.66
2018-01-30T07:49:00.838Z,101878.84
2018-01-30T07:51:28.424Z,101882.97
2018-01-30T07:53:55.950Z,101884.31
2018-01-30T07:56:23.460Z,101897.00
2018-01-30T07:58:51.016Z,101892.46
2018-01-30T08:01:18.545Z,101886.68
2018-01-30T08:03:46.049Z,101892.98
2018-01-30T08:06:13.792Z,101891.28
2018-01-30T08:08:41.309Z,101889.94
2018-01-30T08:11:08.821Z,101889.28
2018-01-30T08:13:36.373Z,101898.21
2018-01-30T08:16:03.905Z,101895.92
2018-01-30T08:18:31.429Z,101895.33
2018-01-30T08:20:58.962Z,101885.84
2018-01-30T08:23:26.496Z,101894.06
2018-01-30T08:25:54.005Z,101886.53
2018-01-30T08:28:21.609Z,101895.61
2018-01-30T08:30:49.128Z,101899.13
2018-01-30T08:33:16.660Z,101893.08
2018-01-30T08:35:44.183Z,101897.44
2018-01-30T08:38:11.700Z,101893.33
2018-01-30T08:40:39.239Z,101911.90
2018-01-30T08:43:06.764Z,101911.83
2018-01-30T08:45:34.304Z,101914.27
2018-01-30T08:48:01.853Z,101921.30
2018-01-30T08:50:29.390Z,101926.67
2018-01-30T08:52:56.918Z,101932.47
2018-01-30T08:55:24.470Z,101932.50
2018-01-30T08:57:51.996Z,101929.91
2018-01-30T09:00:19.594Z,101932.86
2018-01-30T09:02:47.139Z,101935.63
2018-01-30T09:05:14.665Z,101924.11
2018-01-30T09:07:42.204Z,101938.56
2018-01-30T09:10:09.749Z,101933.17
2018-01-30T09:12:37.248Z,101941.61
2018-01-30T09:15:04.772Z,101946.90
2018-01-30T09:17:32.391Z,101941.26
2018-01-30T09:19:59.889Z,101956.56
2018-01-30T09:22:27.478Z,101954.73
2018-01-30T09:24:55.033Z,101956.73
2018-01-30T09:27:22.538Z,101962.20
2018-01-30T09:29:50.038Z,101963.14
2018-01-30T09:32:17.550Z,101961.94
2018-01-30T09:34:45.128Z,101968.27
2018-01-30T09:37:12.703Z,101973.95
2018-01-30T09:39:40.199Z,101978.95
2018-01-30T09:42:07.716Z,101970.44
2018-01-30T09:44:35.314Z,101969.52
2018-01-30T09:47:02.813Z,101975.31
2018-01-30T09:49:31.236Z,101977.09
2018-01-30T09:51:58.841Z,101986.77
2018-01-30T09:54:26.332Z,101988.29
2018-01-30T09:56:53.881Z,101983.65
2018-01-30T09:59:21.433Z,101986.25
2018-01-30T10:01:48.933Z,101981.98
2018-01-30T10:04:16.495Z,101985.49
2018-01-30T10:06:44.025Z,101988.78
2018-01-30T10:09:11.881Z,101989.53
2018-01-30T10:11:39.417Z,101994.30
2018-01-30T10:14:06.969Z,101994.55
2018-01-30T10:16:34.772Z,101982.51
2018-01-30T10:19:02.297Z,101983.62
2018-01-30T10:21:29.853Z,101990.09
2018-01-30T10:23:57.381Z,101993.78
2018-01-30T10:26:24.901Z,101995.46
2018-01-30T10:28:52.433Z,101988.70
2018-01-30T10:31:19.954Z,101986.35
2018-01-30T10:33:47.470Z,101995.41
2018-01-30T10:36:14.982Z,102002.06
2018-01-30T10:38:42.543Z,101996.19
2018-01-30T10:41:10.214Z,101991.56
2018-01-30T10:43:37.722Z,101999.26
2018-01-30T10:46:05.297Z,101980.59
2018-01-30T10:48:32.828Z,101985.45
2018-01-30T10:51:00.358Z,101988.90
2018-01-30T10:53:27.901Z,101995.64
2018-01-30T10:55:55.442Z,101994.98
2018-01-30T10:58:22.941Z,101988.98
2018-01-30T11:00:51.151Z,101987.80
2018-01-30T11:03:18.744Z,101987.47
2018-01-30T11:05:46.396Z,101995.64
2018-01-30T11:08:13.925Z,101995.06
2018-01-30T11:10:41.460Z,101996.22
2018-01-30T11:13:08.965Z,101995.80
2018-01-30T11:15:36.811Z,102007.31
2018-01-30T11:18:04.317Z,102012.70
2018-01-30T11:20:31.816Z,102017.50
2018-01-30T11:22:59.378Z,102016.84
2018-01-30T11:25:26.901Z,102015.91
2018-01-30T11:27:54.430Z,102021.14
2018-01-30T11:30:21.988Z,102043.09
2018-01-30T11:32:49.512Z,102034.51
2018-01-30T11:35:17.015Z,102032.05
2018-01-30T11:37:44.593Z,102032.65
2018-01-30T11:40:12.101Z,102026.77
2018-01-30T11:42:39.621Z,102023.57
2018-01-30T11:45:07.206Z,102019.80
2018-01-30T11:47:34.740Z,102026.11
2018-01-30T11:50:02.357Z,102026.09
2018-01-30T11:52:29.879Z,102018.76
2018-01-30T11:54:57.405Z,102029.38
2018-01-30T11:57:24.914Z,102031.33
2018-01-30T11:59:52.497Z,102028.95
2018-01-30T12:02:20.004Z,102032.16
2018-01-30T12:04:47.497Z,102043.19
2018-01-30T12:07:15.100Z,102037.37
2018-01-30T12:09:42.621Z,102022.97
2018-01-30T12:12:10.229Z,102024.98
2018-01-30T12:14:37.792Z,102009.09
2018-01-30T12:17:05.455Z,102001.66
2018-01-30T12:19:32.988Z,101997.88
2018-01-30T12:22:00.529Z,102001.56
2018-01-30T12:24:28.059Z,102000.89
2018-01-30T12:26:55.690Z,101997.45
2018-01-30T12:29:23.212Z,101990.05
2018-01-30T12:31:51.104Z,101992.14
2018-01-30T12:34:18.653Z,101993.23
2018-01-30T12:36:46.188Z,101994.34
2018-01-30T12:39:13.816Z,101991.14
2018-01-30T12:41:41.401Z,101977.89
2018-01-30T12:44:08.912Z,101987.06
2018-01-30T12:46:36.443Z,101980.75
2018-01-30T12:49:04.031Z,101974.11
2018-01-30T12:51:31.537Z,101980.39
2018-01-30T12:53:59.065Z,101968.30
2018-01-30T12:56:26.832Z,101976.70
2018-01-30T12:58:54.332Z,101976.20
2018-01-30T13:01:21.854Z,101977.41
2018-01-30T13:03:49.384Z,101967.82
2018-01-30T13:06:16.905Z,101965.41
2018-01-30T13:08:44.448Z,101978.63
2018-01-30T13:11:11.975Z,101970.55
2018-01-30T13:13:39.473Z,101963.97
2018-01-30T13:16:06.984Z,101957.56
2018-01-30T13:18:34.485Z,101968.50
2018-01-30T13:21:02.662Z,101962.63
2018-01-30T13:23:30.193Z,101962.55
2018-01-30T13:25:57.752Z,101963.55
2018-01-30T13:28:25.276Z,101968.34
2018-01-30T13:30:52.984Z,101968.91
2018-01-30T13:33:20.513Z,101970.58
2018-01-30T13:35:48.022Z,101968.30
2018-01-30T13:38:15.586Z,101964.20
2018-01-30T13:40:43.112Z,101967.08
2018-01-30T13:43:10.629Z,101966.92
2018-01-30T13:45:38.255Z,101969.52
2018-01-30T13:48:05.810Z,101962.44
2018-01-30T13:50:33.318Z,101967.47
2018-01-30T13:53:00.935Z,101967.63
2018-01-30T13:55:28.468Z,101973.95
2018-01-30T13:57:56.073Z,101978.86
2018-01-30T14:00:23.612Z,101979.55
2018-01-30T14:02:51.117Z,101984.84
2018-01-30T14:05:18.668Z,101992.52
2018-01-30T14:07:46.283Z,101992.73
2018-01-30T14:10:13.805Z,101989.47
2018-01-30T14:12:41.346Z,101998.66
2018-01-30T14:15:08.872Z,101995.45
2018-01-30T14:17:36.396Z,101978.62
2018-01-30T14:20:03.914Z,101980.22
2018-01-30T14:22:31.442Z,101979.89
2018-01-30T14:24:58.934Z,101983.93
2018-01-30T14:27:26.465Z,101975.50
2018-01-30T14:29:54.233Z,101985.61
2018-01-30T14:32:21.729Z,101985.87
2018-01-30T14:34:49.236Z,101997.41
2018-01-30T14:37:16.765Z,101992.84
2018-01-30T14:39:44.261Z,101990.91
2018-01-30T14:42:11.764Z,101989.73
2018-01-30T14:44:39.581Z,101983.77
2018-01-30T14:47:07.080Z,101983.77
2018-01-30T14:49:34.603Z,101988.89
2018-01-30T14:52:02.129Z,102004.23
2018-01-30T14:54:29.668Z,102003.63
2018-01-30T14:56:57.189Z,101996.56
2018-01-30T14:59:24.683Z,102005.31
2018-01-30T15:01:52.192Z,102007.40
2018-01-30T15:04:19.891Z,101986.56
2018-01-30T15:06:47.389Z,101984.02
2018-01-30T15:09:15.632Z,101985.20
2018-01-30T15:11:43.180Z,101977.87
2018-01-30T15:14:10.949Z,101975.53
2018-01-30T15:16:38.445Z,101974.78
2018-01-30T15:19:05.972Z,101979.57
2018-01-30T15:21:33.552Z,101967.70
2018-01-30T15:24:01.301Z,101973.69
2018-01-30T15:26:28.803Z,101970.63
2018-01-30T15:28:56.312Z,101967.77
2018-01-30T15:31:23.860Z,101973.83
2018-01-30T15:33:51.364Z,101971.88
2018-01-30T15:36:18.890Z,101978.09
2018-01-30T15:38:46.426Z,101980.04
2018-01-30T15:41:13.977Z,101973.23
2018-01-30T15:43:41.490Z,101978.69
2018-01-30T15:46:09.147Z,101986.43
2018-01-30T15:48:36.732Z,101979.02
2018-01-30T15:51:04.261Z,101979.69
2018-01-30T15:53:31.824Z,101974.41
2018-01-30T15:55:59.332Z,101981.38
2018-01-30T15:58:26.954Z,101970.11
2018-01-30T16:00:54.508Z,101969.86
2018-01-30T16:03:22.056Z,101978.44
2018-01-30T16:05:49.553Z,101977.84
2018-01-30T16:08:17.141Z,101977.84
2018-01-30T16:10:44.644Z,101972.70
2018-01-30T16:13:12.165Z,101973.47
2018-01-30T16:15:39.706Z,101960.01
2018-01-30T16:18:07.430Z,101957.06
2018-01-30T16:20:34.988Z,101961.85
2018-01-30T16:23:02.546Z,101976.58
2018-01-30T16:25:30.130Z,101980.09
2018-01-30T16:27:57.654Z,101981.34
2018-01-30T16:30:25.145Z,101962.23
2018-01-30T16:32:52.663Z,101956.10
2018-01-30T16:35:20.201Z,101952.48
2018-01-30T16:37:47.737Z,101957.52
2018-01-30T16:40:15.285Z,101970.05
2018-01-30T16:42:42.805Z,101950.81
2018-01-30T16:45:10.345Z,101952.71
2018-01-30T16:47:37.841Z,101961.02
2018-01-30T16:50:05.345Z,101954.05
2018-01-30T16:52:32.890Z,101949.42
2018-01-30T16:55:00.459Z,101939.58
2018-01-30T16:57:27.984Z,101943.34
2018-01-30T16:59:55.516Z,101942.07
2018-01-30T17:02:23.131Z,101942.31
2018-01-30T17:04:50.685Z,101946.53
2018-01-30T17:07:18.189Z,101933.92
2018-01-30T17:09:45.721Z,101935.09
2018-01-30T17:12:13.222Z,101928.44
2018-01-30T17:14:40.930Z,101927.09
2018-01-30T17:17:08.452Z,101927.28
2018-01-30T17:19:36.004Z,101925.33
2018-01-30T17:22:03.676Z,101927.60
2018-01-30T17:24:31.225Z,101930.95
2018-01-30T17:26:58.738Z,101932.30
2018-01-30T17:29:26.289Z,101934.83
2018-01-30T17:31:53.785Z,101935.34
2018-01-30T17:34:21.313Z,101929.28
2018-01-30T17:36:48.881Z,101924.56
2018-01-30T17:39:16.433Z,101918.75
2018-01-30T17:41:43.972Z,101914.72
2018-01-30T17:44:11.487Z,101912.55
2018-01-30T17:46:39.006Z,101910.94
2018-01-30T17:49:06.568Z,101906.84
2018-01-30T17:51:34.082Z,101898.78
2018-01-30T17:54:01.628Z,101906.06
2018-01-30T17:56:29.137Z,101903.89
2018-01-30T17:58:56.670Z,101909.39
2018-01-30T18:01:24.237Z,101912.55
2018-01-30T18:03:51.765Z,101908.87
2018-01-30T18:06:19.401Z,101911.35
2018-01-30T18:08:46.901Z,101912.77
2018-01-30T18:11:14.453Z,101914.70
2018-01-30T18:13:42.071Z,101906.38
2018-01-30T18:16:09.630Z,101900.92
2018-01-30T18:18:37.134Z,101899.16
2018-01-30T18:21:04.674Z,101907.11
2018-01-30T18:23:32.177Z,101903.14
2018-01-30T18:25:59.701Z,101899.78
2018-01-30T18:28:27.213Z,101904.88
2018-01-30T18:30:54.735Z,101907.30
2018-01-30T18:33:22.261Z,101912.85
2018-01-30T18:35:49.803Z,101904.62
2018-01-30T18:38:17.363Z,101902.17
2018-01-30T18:40:44.870Z,101903.25
2018-01-30T18:43:12.379Z,101900.63
2018-01-30T18:45:39.889Z,101900.77
2018-01-30T18:48:07.521Z,101900.50
2018-01-30T18:50:35.060Z,101903.96
2018-01-30T18:53:03.668Z,101907.81
2018-01-30T18:55:31.206Z,101904.63
2018-01-30T18:57:58.736Z,101903.78
2018-01-30T19:00:26.294Z,101907.55
2018-01-30T19:02:53.802Z,101904.11
2018-01-30T19:05:21.563Z,101907.69
2018-01-30T19:07:49.084Z,101907.03
2018-01-30T19:10:16.674Z,101912.64
2018-01-30T19:12:44.205Z,101914.91
2018-01-30T19:15:11.724Z,101917.14
2018-01-30T19:17:39.309Z,101918.67
2018-01-30T19:20:06.924Z,101921.41
2018-01-30T19:22:34.424Z,101918.13
2018-01-30T19:25:01.942Z,101915.27
2018-01-30T19:27:29.487Z,101919.11
2018-01-30T19:29:57.009Z,101928.23
2018-01-30T19:32:24.518Z,101923.64
2018-01-30T19:34:52.041Z,101927.81
2018-01-30T19:37:19.857Z,101918.75
2018-01-30T19:39:47.360Z,101912.18
2018-01-30T19:42:14.946Z,101918.47
2018-01-30T19:44:42.448Z,101920.92
2018-01-30T19:47:10.180Z,101929.66
2018-01-30T19:49:37.704Z,101921.76
2018-01-30T19:52:05.234Z,101917.08
2018-01-30T19:54:32.773Z,101922.31
2018-01-30T19:57:00.404Z,101920.55
2018-01-30T19:59:27.964Z,101914.36
2018-01-30T20:01:55.507Z,101915.09
2018-01-30T20:04:23.100Z,101915.42
2018-01-30T20:06:50.600Z,101910.33
2018-01-30T20:09:18.225Z,101900.52
2018-01-30T20:11:45.761Z,101892.05
2018-01-30T20:14:13.308Z,101880.90
2018-01-30T20:16:40.881Z,101881.05
2018-01-30T20:19:08.465Z,101880.72
2018-01-30T20:21:35.992Z,101872.03
2018-01-30T20:24:03.949Z,101867.65
2018-01-30T20:26:37.108Z,101869.73
2018-01-30T20:29:04.683Z,101864.60
2018-01-30T20:31:32.325Z,101863.67
2018-01-30T20:33:59.826Z,101861.27
2018-01-30T20:36:27.349Z,101853.99
2018-01-30T20:38:55.185Z,101851.97
2018-01-30T20:41:22.681Z,101844.06
2018-01-30T20:43:50.180Z,101841.85
2018-01-30T20:46:17.723Z,101832.46
2018-01-30T20:48:45.246Z,101837.73
2018-01-30T20:51:12.758Z,101826.31
2018-01-30T20:53:40.280Z,101828.05
2018-01-30T20:56:07.902Z,101821.39
2018-01-30T20:58:35.412Z,101828.80
2018-01-30T21:01:02.949Z,101822.15
2018-01-30T21:03:30.554Z,101821.09
2018-01-30T21:05:58.049Z,101815.63
2018-01-30T21:08:25.670Z,101815.63
2018-01-30T21:10:53.196Z,101819.74
2018-01-30T21:13:20.801Z,101813.00
2018-01-30T21:15:48.356Z,101810.05
2018-01-30T21:18:15.885Z,101812.13
2018-01-30T21:20:43.408Z,101812.03
2018-01-30T21:23:10.941Z,101817.02
2018-01-30T21:25:38.432Z,101805.94
2018-01-30T21:28:06.039Z,101806.81
2018-01-30T21:30:33.538Z,101794.66
2018-01-30T21:33:01.060Z,101789.91
2018-01-30T21:35:28.601Z,101797.24
2018-01-30T21:37:56.121Z,101797.28
2018-01-30T21:40:23.628Z,101801.41
2018-01-30T21:42:51.324Z,101799.23
2018-01-30T21:45:18.837Z,101798.27
2018-01-30T21:47:46.360Z,101796.91
2018-01-30T21:50:13.916Z,101794.27
2018-01-30T21:52:41.434Z,101786.66
2018-01-30T21:55:08.994Z,101781.85
2018-01-30T21:57:36.516Z,101781.34
2018-01-30T22:00:04.115Z,101771.38
2018-01-30T22:02:31.641Z,101773.07
2018-01-30T22:04:59.165Z,101768.69
2018-01-30T22:07:26.681Z,101767.44
2018-01-30T22:09:54.255Z,101772.29
2018-01-30T22:12:21.800Z,101776.35
2018-01-30T22:14:49.410Z,101775.84
2018-01-30T22:17:17.042Z,101773.41
2018-01-30T22:19:44.612Z,101769.47
2018-01-30T22:22:12.111Z,101760.19
2018-01-30T22:24:39.684Z,101755.20
2018-01-30T22:27:07.209Z,101750.40
2018-01-30T22:29:34.705Z,101748.96
2018-01-30T22:32:02.215Z,101748.73
2018-01-30T22:34:29.841Z,101753.44
2018-01-30T22:36:57.336Z,101746.33
2018-01-30T22:39:24.879Z,101747.72
2018-01-30T22:41:52.619Z,101749.98
2018-01-30T22:44:29.938Z,101742.55
2018-01-30T22:46:47.655Z,101744.84
